sensor_id;sensor_type;location;lat;lon;timestamp;pressure;altitude;pressure_sealevel;temperature;humidity
55604;BME280;41468;48.838;9.330;2023-01-10T00:01:49;97992.94;;;6.16;97.99
55604;BME280;41468;48.838;9.330;2023-01-10T00:04:16;97996.28;;;6.26;98.21
55604;BME280;41468;48.838;9.330;2023-01-10T00:06:47;97996.09;;;6.18;98.23
55604;BME280;41468;48.838;9.330;2023-01-10T00:09:13;98003.69;;;6.13;97.70
55604;BME280;41468;48.838;9.330;2023-01-10T00:11:40;98010.91;;;6.09;97.68
55604;BME280;41468;48.838;9.330;2023-01-10T00:14:27;98010.78;;;6.17;98.19
55604;BME280;41468;48.838;9.330;2023-01-10T00:16:58;98014.13;;;6.27;98.56
55604;BME280;41468;48.838;9.330;2023-01-10T00:19:25;98012.13;;;6.24;97.74
55604;BME280;41468;48.838;9.330;2023-01-10T00:21:52;98018.81;;;6.14;99.00
55604;BME280;41468;48.838;9.330;2023-01-10T00:24:18;98018.47;;;6.15;98.78
55604;BME280;41468;48.838;9.330;2023-01-10T00:26:46;98029.06;;;6.20;98.31
55604;BME280;41468;48.838;9.330;2023-01-10T00:29:21;98028.09;;;6.13;96.27
55604;BME280;41468;48.838;9.330;2023-01-10T00:31:53;98040.25;;;6.19;95.21
55604;BME280;41468;48.838;9.330;2023-01-10T00:34:20;98040.66;;;6.05;95.93
55604;BME280;41468;48.838;9.330;2023-01-10T00:36:46;98038.56;;;6.14;97.04
55604;BME280;41468;48.838;9.330;2023-01-10T00:39:15;98043.13;;;6.10;97.93
55604;BME280;41468;48.838;9.330;2023-01-10T00:41:44;98046.25;;;6.12;98.06
55604;BME280;41468;48.838;9.330;2023-01-10T00:44:30;98057.22;;;6.16;97.74
55604;BME280;41468;48.838;9.330;2023-01-10T00:46:56;98056.66;;;6.10;98.30
55604;BME280;41468;48.838;9.330;2023-01-10T00:49:23;98067.38;;;6.07;98.87
55604;BME280;41468;48.838;9.330;2023-01-10T00:51:49;98066.38;;;6.11;99.81
55604;BME280;41468;48.838;9.330;2023-01-10T00:54:16;98071.56;;;6.16;100.00
55604;BME280;41468;48.838;9.330;2023-01-10T00:56:43;98073.16;;;6.05;98.59
55604;BME280;41468;48.838;9.330;2023-01-10T00:59:09;98076.72;;;6.22;98.70
55604;BME280;41468;48.838;9.330;2023-01-10T01:01:36;98082.63;;;6.11;99.03
55604;BME280;41468;48.838;9.330;2023-01-10T01:04:03;98090.28;;;6.22;100.00
55604;BME280;41468;48.838;9.330;2023-01-10T01:06:30;98083.09;;;6.13;98.46
55604;BME280;41468;48.838;9.330;2023-01-10T01:08:56;98097.09;;;6.15;98.41
55604;BME280;41468;48.838;9.330;2023-01-10T01:11:24;98096.41;;;6.18;99.20
55604;BME280;41468;48.838;9.330;2023-01-10T01:13:51;98111.53;;;6.19;98.57
55604;BME280;41468;48.838;9.330;2023-01-10T01:16:17;98104.88;;;6.17;98.08
55604;BME280;41468;48.838;9.330;2023-01-10T01:18:44;98121.69;;;6.23;98.03
55604;BME280;41468;48.838;9.330;2023-01-10T01:21:11;98121.22;;;6.20;99.09
55604;BME280;41468;48.838;9.330;2023-01-10T01:23:38;98127.16;;;6.10;99.67
55604;BME280;41468;48.838;9.330;2023-01-10T01:26:04;98128.16;;;6.18;99.66
55604;BME280;41468;48.838;9.330;2023-01-10T01:28:32;98133.31;;;6.23;98.83
55604;BME280;41468;48.838;9.330;2023-01-10T01:31:05;98135.38;;;6.26;99.41
55604;BME280;41468;48.838;9.330;2023-01-10T01:33:33;98136.47;;;6.25;99.91
55604;BME280;41468;48.838;9.330;2023-01-10T01:35:59;98143.34;;;6.35;99.00
55604;BME280;41468;48.838;9.330;2023-01-10T01:38:26;98150.59;;;6.31;98.86
55604;BME280;41468;48.838;9.330;2023-01-10T01:40:52;98150.16;;;6.29;99.17
55604;BME280;41468;48.838;9.330;2023-01-10T01:43:24;98160.53;;;6.27;99.21
55604;BME280;41468;48.838;9.330;2023-01-10T01:46:02;98162.56;;;6.30;99.89
55604;BME280;41468;48.838;9.330;2023-01-10T01:48:37;98174.28;;;6.34;99.58
55604;BME280;41468;48.838;9.330;2023-01-10T01:51:16;98177.69;;;6.31;99.02
55604;BME280;41468;48.838;9.330;2023-01-10T01:53:47;98188.53;;;6.31;98.05
55604;BME280;41468;48.838;9.330;2023-01-10T01:56:29;98193.97;;;6.31;99.07
55604;BME280;41468;48.838;9.330;2023-01-10T01:59:06;98196.59;;;6.27;97.98
55604;BME280;41468;48.838;9.330;2023-01-10T02:01:37;98201.69;;;6.29;98.43
55604;BME280;41468;48.838;9.330;2023-01-10T02:04:10;98197.59;;;6.23;97.48
55604;BME280;41468;48.838;9.330;2023-01-10T02:06:39;98207.09;;;6.04;97.88
55604;BME280;41468;48.838;9.330;2023-01-10T02:09:16;98214.81;;;6.02;98.00
55604;BME280;41468;48.838;9.330;2023-01-10T02:11:44;98221.69;;;6.00;97.71
55604;BME280;41468;48.838;9.330;2023-01-10T02:14:11;98226.75;;;6.01;96.88
55604;BME280;41468;48.838;9.330;2023-01-10T02:16:39;98238.97;;;6.07;97.73
55604;BME280;41468;48.838;9.330;2023-01-10T02:19:35;98247.19;;;5.98;97.46
55604;BME280;41468;48.838;9.330;2023-01-10T02:22:33;98254.53;;;5.98;98.09
55604;BME280;41468;48.838;9.330;2023-01-10T02:33:23;98273.50;;;5.98;97.91
55604;BME280;41468;48.838;9.330;2023-01-10T02:36:18;98281.84;;;5.93;98.11
55604;BME280;41468;48.838;9.330;2023-01-10T02:38:57;98282.66;;;5.93;99.90
55604;BME280;41468;48.838;9.330;2023-01-10T02:41:55;98289.97;;;5.81;100.00
55604;BME280;41468;48.838;9.330;2023-01-10T02:47:02;98296.06;;;5.90;100.00
55604;BME280;41468;48.838;9.330;2023-01-10T02:49:29;98302.25;;;5.78;100.00
55604;BME280;41468;48.838;9.330;2023-01-10T02:51:56;98301.69;;;5.85;100.00
55604;BME280;41468;48.838;9.330;2023-01-10T02:54:26;98299.34;;;5.83;100.00
55604;BME280;41468;48.838;9.330;2023-01-10T02:59:32;98313.31;;;5.73;100.00
55604;BME280;41468;48.838;9.330;2023-01-10T03:02:06;98318.94;;;5.68;100.00
55604;BME280;41468;48.838;9.330;2023-01-10T03:07:55;98329.88;;;5.71;100.00
55604;BME280;41468;48.838;9.330;2023-01-10T03:10:30;98334.41;;;5.67;100.00
55604;BME280;41468;48.838;9.330;2023-01-10T03:15:56;98348.06;;;5.71;100.00
55604;BME280;41468;48.838;9.330;2023-01-10T03:18:28;98359.00;;;5.62;99.91
55604;BME280;41468;48.838;9.330;2023-01-10T03:20:58;98358.44;;;5.69;99.69
55604;BME280;41468;48.838;9.330;2023-01-10T03:23:26;98370.06;;;5.69;99.67
55604;BME280;41468;48.838;9.330;2023-01-10T03:25:54;98372.44;;;5.71;98.24
55604;BME280;41468;48.838;9.330;2023-01-10T03:28:28;98385.00;;;5.75;98.52
55604;BME280;41468;48.838;9.330;2023-01-10T03:31:20;98391.22;;;5.76;98.85
55604;BME280;41468;48.838;9.330;2023-01-10T03:33:48;98398.09;;;5.73;97.73
55604;BME280;41468;48.838;9.330;2023-01-10T03:36:26;98397.03;;;5.66;97.77
55604;BME280;41468;48.838;9.330;2023-01-10T03:39:24;98404.97;;;5.71;99.37
55604;BME280;41468;48.838;9.330;2023-01-10T03:45:00;98413.84;;;5.59;100.00
55604;BME280;41468;48.838;9.330;2023-01-10T03:47:39;98420.03;;;5.60;100.00
55604;BME280;41468;48.838;9.330;2023-01-10T03:50:17;98419.06;;;5.64;99.82
55604;BME280;41468;48.838;9.330;2023-01-10T03:52:45;98424.03;;;5.74;99.92
55604;BME280;41468;48.838;9.330;2023-01-10T03:55:17;98431.97;;;5.80;99.08
55604;BME280;41468;48.838;9.330;2023-01-10T03:57:45;98435.34;;;5.76;98.83
55604;BME280;41468;48.838;9.330;2023-01-10T04:00:13;98440.66;;;5.73;99.39
55604;BME280;41468;48.838;9.330;2023-01-10T04:02:40;98438.91;;;5.68;98.86
55604;BME280;41468;48.838;9.330;2023-01-10T04:05:08;98457.03;;;5.76;99.10
55604;BME280;41468;48.838;9.330;2023-01-10T04:07:35;98456.03;;;5.81;98.44
55604;BME280;41468;48.838;9.330;2023-01-10T04:10:03;98465.03;;;5.73;99.24
55604;BME280;41468;48.838;9.330;2023-01-10T04:12:30;98471.03;;;5.79;98.33
55604;BME280;41468;48.838;9.330;2023-01-10T04:14:57;98466.88;;;5.81;98.01
55604;BME280;41468;48.838;9.330;2023-01-10T04:17:23;98470.63;;;5.89;97.56
55604;BME280;41468;48.838;9.330;2023-01-10T04:19:50;98478.97;;;5.84;97.71
55604;BME280;41468;48.838;9.330;2023-01-10T04:22:17;98480.41;;;5.81;97.58
55604;BME280;41468;48.838;9.330;2023-01-10T04:24:43;98482.28;;;5.68;98.16
55604;BME280;41468;48.838;9.330;2023-01-10T04:27:12;98485.28;;;5.88;97.87
55604;BME280;41468;48.838;9.330;2023-01-10T04:29:38;98492.84;;;5.82;96.82
55604;BME280;41468;48.838;9.330;2023-01-10T04:32:05;98506.72;;;5.81;97.39
55604;BME280;41468;48.838;9.330;2023-01-10T04:34:32;98506.06;;;5.84;97.91
55604;BME280;41468;48.838;9.330;2023-01-10T04:36:58;98513.06;;;5.85;97.52
55604;BME280;41468;48.838;9.330;2023-01-10T04:39:25;98510.03;;;5.86;97.24
55604;BME280;41468;48.838;9.330;2023-01-10T04:41:51;98519.06;;;5.90;97.12
55604;BME280;41468;48.838;9.330;2023-01-10T04:44:18;98524.03;;;5.88;97.04
55604;BME280;41468;48.838;9.330;2023-01-10T04:46:44;98528.06;;;5.82;96.68
55604;BME280;41468;48.838;9.330;2023-01-10T04:49:11;98530.44;;;5.84;97.58
55604;BME280;41468;48.838;9.330;2023-01-10T04:51:38;98534.63;;;5.81;97.49
55604;BME280;41468;48.838;9.330;2023-01-10T04:54:05;98547.97;;;5.86;96.82
55604;BME280;41468;48.838;9.330;2023-01-10T04:56:32;98548.00;;;5.78;96.90
55604;BME280;41468;48.838;9.330;2023-01-10T04:58:59;98560.38;;;5.87;96.53
55604;BME280;41468;48.838;9.330;2023-01-10T05:01:25;98570.31;;;5.83;96.80
55604;BME280;41468;48.838;9.330;2023-01-10T05:03:54;98567.44;;;5.80;95.84
55604;BME280;41468;48.838;9.330;2023-01-10T05:06:22;98571.47;;;5.73;96.80
55604;BME280;41468;48.838;9.330;2023-01-10T05:08:49;98571.34;;;5.70;96.71
55604;BME280;41468;48.838;9.330;2023-01-10T05:11:16;98579.66;;;5.65;95.92
55604;BME280;41468;48.838;9.330;2023-01-10T05:13:42;98577.63;;;5.62;95.84
55604;BME280;41468;48.838;9.330;2023-01-10T05:16:12;98571.88;;;5.63;96.55
55604;BME280;41468;48.838;9.330;2023-01-10T05:18:38;98577.16;;;5.60;96.13
55604;BME280;41468;48.838;9.330;2023-01-10T05:21:07;98583.34;;;5.60;94.51
55604;BME280;41468;48.838;9.330;2023-01-10T05:23:39;98587.31;;;5.63;95.75
55604;BME280;41468;48.838;9.330;2023-01-10T05:26:14;98588.59;;;5.65;94.40
55604;BME280;41468;48.838;9.330;2023-01-10T05:28:41;98600.16;;;5.74;93.69
55604;BME280;41468;48.838;9.330;2023-01-10T05:31:11;98599.44;;;5.65;93.63
55604;BME280;41468;48.838;9.330;2023-01-10T05:33:38;98597.69;;;5.61;94.00
55604;BME280;41468;48.838;9.330;2023-01-10T05:36:05;98617.19;;;5.54;94.22
55604;BME280;41468;48.838;9.330;2023-01-10T05:38:32;98609.50;;;5.56;94.40
55604;BME280;41468;48.838;9.330;2023-01-10T05:40:59;98621.47;;;5.55;93.40
55604;BME280;41468;48.838;9.330;2023-01-10T05:43:27;98627.84;;;5.59;93.74
55604;BME280;41468;48.838;9.330;2023-01-10T05:45:54;98611.28;;;5.52;93.66
55604;BME280;41468;48.838;9.330;2023-01-10T05:48:20;98624.00;;;5.60;93.43
55604;BME280;41468;48.838;9.330;2023-01-10T05:50:50;98620.19;;;5.52;93.08
55604;BME280;41468;48.838;9.330;2023-01-10T05:53:18;98629.88;;;5.62;92.80
55604;BME280;41468;48.838;9.330;2023-01-10T05:55:55;98631.16;;;5.56;92.98
55604;BME280;41468;48.838;9.330;2023-01-10T05:58:22;98643.13;;;5.55;92.49
55604;BME280;41468;48.838;9.330;2023-01-10T06:00:49;98646.31;;;5.57;91.36
55604;BME280;41468;48.838;9.330;2023-01-10T06:03:16;98645.53;;;5.57;91.95
55604;BME280;41468;48.838;9.330;2023-01-10T06:05:43;98646.63;;;5.56;92.21
55604;BME280;41468;48.838;9.330;2023-01-10T06:08:12;98658.72;;;5.58;92.46
55604;BME280;41468;48.838;9.330;2023-01-10T06:10:38;98664.31;;;5.53;92.60
55604;BME280;41468;48.838;9.330;2023-01-10T06:13:07;98658.72;;;5.58;92.25
55604;BME280;41468;48.838;9.330;2023-01-10T06:15:46;98660.75;;;5.70;91.08
55604;BME280;41468;48.838;9.330;2023-01-10T06:18:13;98669.22;;;5.68;90.83
55604;BME280;41468;48.838;9.330;2023-01-10T06:20:43;98669.25;;;5.60;90.80
55604;BME280;41468;48.838;9.330;2023-01-10T06:23:09;98662.56;;;5.57;91.64
55604;BME280;41468;48.838;9.330;2023-01-10T06:25:37;98669.38;;;5.63;91.19
55604;BME280;41468;48.838;9.330;2023-01-10T06:28:13;98676.91;;;5.58;90.07
55604;BME280;41468;48.838;9.330;2023-01-10T06:30:41;98683.28;;;5.62;90.24
55604;BME280;41468;48.838;9.330;2023-01-10T06:33:09;98682.28;;;5.66;90.51
55604;BME280;41468;48.838;9.330;2023-01-10T06:35:37;98674.94;;;5.67;89.81
55604;BME280;41468;48.838;9.330;2023-01-10T06:38:04;98684.63;;;5.76;90.11
55604;BME280;41468;48.838;9.330;2023-01-10T06:40:30;98686.72;;;5.71;90.03
55604;BME280;41468;48.838;9.330;2023-01-10T06:42:57;98701.72;;;5.68;87.58
55604;BME280;41468;48.838;9.330;2023-01-10T06:45:24;98709.19;;;5.71;88.71
55604;BME280;41468;48.838;9.330;2023-01-10T06:47:51;98724.53;;;5.67;88.32
55604;BME280;41468;48.838;9.330;2023-01-10T06:50:18;98724.53;;;5.67;88.24
55604;BME280;41468;48.838;9.330;2023-01-10T06:52:44;98733.44;;;5.68;88.99
55604;BME280;41468;48.838;9.330;2023-01-10T06:55:11;98724.19;;;5.69;88.91
55604;BME280;41468;48.838;9.330;2023-01-10T06:57:38;98726.41;;;5.75;87.84
55604;BME280;41468;48.838;9.330;2023-01-10T07:00:12;98740.59;;;5.72;87.63
55604;BME280;41468;48.838;9.330;2023-01-10T07:02:38;98742.13;;;5.82;86.61
55604;BME280;41468;48.838;9.330;2023-01-10T07:05:05;98748.56;;;5.69;86.52
55604;BME280;41468;48.838;9.330;2023-01-10T07:07:32;98741.22;;;5.78;86.78
55604;BME280;41468;48.838;9.330;2023-01-10T07:09:58;98741.72;;;5.71;85.96
55604;BME280;41468;48.838;9.330;2023-01-10T07:12:25;98740.13;;;5.70;85.57
55604;BME280;41468;48.838;9.330;2023-01-10T07:14:52;98738.50;;;5.69;86.37
55604;BME280;41468;48.838;9.330;2023-01-10T07:17:18;98749.41;;;5.61;86.14
55604;BME280;41468;48.838;9.330;2023-01-10T07:19:45;98760.88;;;5.58;85.49
55604;BME280;41468;48.838;9.330;2023-01-10T07:22:11;98770.13;;;5.57;85.35
55604;BME280;41468;48.838;9.330;2023-01-10T07:24:38;98777.63;;;5.60;86.30
55604;BME280;41468;48.838;9.330;2023-01-10T07:27:04;98792.13;;;5.55;84.47
55604;BME280;41468;48.838;9.330;2023-01-10T07:29:31;98796.41;;;5.56;85.97
55604;BME280;41468;48.838;9.330;2023-01-10T07:31:57;98811.06;;;5.55;87.32
55604;BME280;41468;48.838;9.330;2023-01-10T07:34:24;98807.09;;;5.52;86.06
55604;BME280;41468;48.838;9.330;2023-01-10T07:36:51;98809.94;;;5.56;87.77
55604;BME280;41468;48.838;9.330;2023-01-10T07:39:17;98817.16;;;5.52;87.93
55604;BME280;41468;48.838;9.330;2023-01-10T07:41:46;98809.47;;;5.63;88.19
55604;BME280;41468;48.838;9.330;2023-01-10T07:44:12;98808.78;;;5.74;87.27
55604;BME280;41468;48.838;9.330;2023-01-10T07:46:39;98804.38;;;5.70;87.53
55604;BME280;41468;48.838;9.330;2023-01-10T07:49:06;98809.13;;;5.73;87.41
55604;BME280;41468;48.838;9.330;2023-01-10T07:51:32;98822.50;;;5.69;86.62
55604;BME280;41468;48.838;9.330;2023-01-10T07:53:59;98833.34;;;5.69;87.61
55604;BME280;41468;48.838;9.330;2023-01-10T07:56:25;98842.44;;;5.73;87.48
55604;BME280;41468;48.838;9.330;2023-01-10T07:58:52;98847.38;;;5.71;86.79
55604;BME280;41468;48.838;9.330;2023-01-10T08:01:18;98852.50;;;5.73;87.48
55604;BME280;41468;48.838;9.330;2023-01-10T08:03:45;98852.97;;;5.75;86.67
55604;BME280;41468;48.838;9.330;2023-01-10T08:06:12;98847.34;;;5.89;87.11
55604;BME280;41468;48.838;9.330;2023-01-10T08:08:41;98858.84;;;5.86;85.49
55604;BME280;41468;48.838;9.330;2023-01-10T08:11:08;98865.06;;;5.95;86.19
55604;BME280;41468;48.838;9.330;2023-01-10T08:13:35;98871.25;;;5.95;86.34
55604;BME280;41468;48.838;9.330;2023-01-10T08:16:05;98866.19;;;5.94;85.14
55604;BME280;41468;48.838;9.330;2023-01-10T08:18:37;98865.06;;;5.95;84.65
55604;BME280;41468;48.838;9.330;2023-01-10T08:21:08;98877.03;;;5.94;85.76
55604;BME280;41468;48.838;9.330;2023-01-10T08:23:35;98873.84;;;5.83;84.43
55604;BME280;41468;48.838;9.330;2023-01-10T08:26:02;98879.22;;;5.92;85.42
55604;BME280;41468;48.838;9.330;2023-01-10T08:28:29;98882.09;;;5.95;85.66
55604;BME280;41468;48.838;9.330;2023-01-10T08:30:56;98886.88;;;5.98;85.80
55604;BME280;41468;48.838;9.330;2023-01-10T08:33:23;98897.06;;;6.10;86.05
55604;BME280;41468;48.838;9.330;2023-01-10T08:35:50;98896.59;;;6.08;85.36
55604;BME280;41468;48.838;9.330;2023-01-10T08:38:17;98904.72;;;6.08;82.91
55604;BME280;41468;48.838;9.330;2023-01-10T08:40:44;98911.72;;;6.09;84.84
55604;BME280;41468;48.838;9.330;2023-01-10T08:43:11;98911.59;;;6.06;83.90
55604;BME280;41468;48.838;9.330;2023-01-10T08:45:38;98916.69;;;5.98;82.86
55604;BME280;41468;48.838;9.330;2023-01-10T08:48:09;98916.69;;;5.98;83.95
55604;BME280;41468;48.838;9.330;2023-01-10T08:50:36;98902.81;;;6.09;83.59
55604;BME280;41468;48.838;9.330;2023-01-10T08:53:03;98909.47;;;6.20;85.25
55604;BME280;41468;48.838;9.330;2023-01-10T08:55:29;98907.84;;;6.28;85.12
55604;BME280;41468;48.838;9.330;2023-01-10T08:58:00;98912.53;;;6.18;84.53
55604;BME280;41468;48.838;9.330;2023-01-10T09:00:27;98921.59;;;6.23;85.13
55604;BME280;41468;48.838;9.330;2023-01-10T09:02:54;98918.75;;;6.19;83.95
55604;BME280;41468;48.838;9.330;2023-01-10T09:05:21;98927.00;;;6.23;83.71
55604;BME280;41468;48.838;9.330;2023-01-10T09:07:57;98933.44;;;6.18;83.37
55604;BME280;41468;48.838;9.330;2023-01-10T09:10:24;98951.13;;;6.15;82.52
55604;BME280;41468;48.838;9.330;2023-01-10T09:12:51;98950.97;;;6.12;84.97
55604;BME280;41468;48.838;9.330;2023-01-10T09:15:23;98953.38;;;6.13;85.41
55604;BME280;41468;48.838;9.330;2023-01-10T09:17:58;98945.84;;;6.19;85.73
55604;BME280;41468;48.838;9.330;2023-01-10T09:20:27;98948.88;;;6.26;83.65
55604;BME280;41468;48.838;9.330;2023-01-10T09:22:54;98937.81;;;6.31;82.81
55604;BME280;41468;48.838;9.330;2023-01-10T09:25:20;98954.41;;;6.38;83.69
55604;BME280;41468;48.838;9.330;2023-01-10T09:27:54;98959.53;;;6.40;83.40
55604;BME280;41468;48.838;9.330;2023-01-10T09:30:21;98957.13;;;6.38;83.71
55604;BME280;41468;48.838;9.330;2023-01-10T09:32:50;98958.91;;;6.34;83.15
55604;BME280;41468;48.838;9.330;2023-01-10T09:35:17;98966.34;;;6.46;80.72
55604;BME280;41468;48.838;9.330;2023-01-10T09:37:43;98964.41;;;6.55;82.49
55604;BME280;41468;48.838;9.330;2023-01-10T09:40:16;98973.31;;;6.64;81.68
55604;BME280;41468;48.838;9.330;2023-01-10T09:45:47;98979.38;;;6.70;81.71
55604;BME280;41468;48.838;9.330;2023-01-10T09:48:25;98979.84;;;6.72;80.71
55604;BME280;41468;48.838;9.330;2023-01-10T09:53:54;98981.78;;;6.72;78.59
55604;BME280;41468;48.838;9.330;2023-01-10T09:56:38;98984.94;;;6.74;79.18
55604;BME280;41468;48.838;9.330;2023-01-10T09:59:16;98984.66;;;6.58;79.43
55604;BME280;41468;48.838;9.330;2023-01-10T10:01:45;98985.66;;;6.53;79.99
55604;BME280;41468;48.838;9.330;2023-01-10T10:04:35;98991.09;;;6.53;79.84
55604;BME280;41468;48.838;9.330;2023-01-10T10:07:07;99003.09;;;6.35;81.82
55604;BME280;41468;48.838;9.330;2023-01-10T10:09:38;99001.78;;;6.41;81.40
55604;BME280;41468;48.838;9.330;2023-01-10T10:15:33;99000.66;;;6.42;82.88
55604;BME280;41468;48.838;9.330;2023-01-10T10:18:24;98997.34;;;6.45;82.09
55604;BME280;41468;48.838;9.330;2023-01-10T10:23:37;98989.31;;;6.57;82.55
55604;BME280;41468;48.838;9.330;2023-01-10T10:28:51;98984.06;;;6.44;81.61
55604;BME280;41468;48.838;9.330;2023-01-10T10:31:32;98993.50;;;6.46;82.04
55604;BME280;41468;48.838;9.330;2023-01-10T10:34:14;98993.66;;;6.41;80.66
55604;BME280;41468;48.838;9.330;2023-01-10T10:37:08;98983.09;;;6.57;81.47
55604;BME280;41468;48.838;9.330;2023-01-10T10:42:11;98988.22;;;6.41;81.12
55604;BME280;41468;48.838;9.330;2023-01-10T10:47:30;98991.09;;;6.53;81.36
55604;BME280;41468;48.838;9.330;2023-01-10T10:50:15;98993.66;;;6.41;81.59
55604;BME280;41468;48.838;9.330;2023-01-10T10:52:44;98979.75;;;6.51;82.52
55604;BME280;41468;48.838;9.330;2023-01-10T10:55:18;98989.00;;;6.59;81.46
55604;BME280;41468;48.838;9.330;2023-01-10T10:57:47;98987.19;;;6.63;82.19
55604;BME280;41468;48.838;9.330;2023-01-10T11:00:26;98984.03;;;6.61;81.68
55604;BME280;41468;48.838;9.330;2023-01-10T11:03:01;98978.56;;;6.70;82.32
55604;BME280;41468;48.838;9.330;2023-01-10T11:05:38;98975.25;;;6.64;81.58
55604;BME280;41468;48.838;9.330;2023-01-10T11:08:07;98984.63;;;6.75;83.48
55604;BME280;41468;48.838;9.330;2023-01-10T11:10:55;98983.81;;;6.75;81.09
55604;BME280;41468;48.838;9.330;2023-01-10T11:15:58;98994.97;;;6.82;81.74
55604;BME280;41468;48.838;9.330;2023-01-10T11:18:27;98994.69;;;6.75;81.11
55604;BME280;41468;48.838;9.330;2023-01-10T11:21:02;99004.09;;;6.69;81.21
55604;BME280;41468;48.838;9.330;2023-01-10T11:26:07;99006.19;;;6.72;81.70
55604;BME280;41468;48.838;9.330;2023-01-10T11:28:35;99012.84;;;6.83;82.01
55604;BME280;41468;48.838;9.330;2023-01-10T11:31:02;99004.41;;;6.76;82.70
55604;BME280;41468;48.838;9.330;2023-01-10T11:33:33;99001.81;;;6.79;82.90
55604;BME280;41468;48.838;9.330;2023-01-10T11:38:32;99002.44;;;6.94;81.56
55604;BME280;41468;48.838;9.330;2023-01-10T11:41:02;98995.59;;;7.17;81.04
55604;BME280;41468;48.838;9.330;2023-01-10T11:43:37;98998.13;;;7.22;81.97
55604;BME280;41468;48.838;9.330;2023-01-10T11:46:12;98990.31;;;7.21;80.33
55604;BME280;41468;48.838;9.330;2023-01-10T11:48:41;98989.84;;;7.19;78.96
55604;BME280;41468;48.838;9.330;2023-01-10T11:51:33;98987.34;;;7.35;80.52
55604;BME280;41468;48.838;9.330;2023-01-10T11:56:53;98983.66;;;7.39;78.14
55604;BME280;41468;48.838;9.330;2023-01-10T11:59:21;98978.34;;;7.43;79.83
55604;BME280;41468;48.838;9.330;2023-01-10T12:02:23;98982.13;;;7.50;78.93
55604;BME280;41468;48.838;9.330;2023-01-10T12:04:51;98985.75;;;7.55;78.38
55604;BME280;41468;48.838;9.330;2023-01-10T12:07:20;98986.63;;;7.67;79.74
55604;BME280;41468;48.838;9.330;2023-01-10T12:09:55;98980.91;;;7.60;78.65
55604;BME280;41468;48.838;9.330;2023-01-10T12:12:34;98984.91;;;7.63;79.44
55604;BME280;41468;48.838;9.330;2023-01-10T12:15:26;98992.22;;;7.50;80.49
55604;BME280;41468;48.838;9.330;2023-01-10T12:17:58;98989.31;;;7.55;81.85
55604;BME280;41468;48.838;9.330;2023-01-10T12:20:28;98981.19;;;7.46;80.81
55604;BME280;41468;48.838;9.330;2023-01-10T12:23:07;98973.44;;;7.36;82.50
55604;BME280;41468;48.838;9.330;2023-01-10T12:25:39;98974.56;;;7.35;83.47
55604;BME280;41468;48.838;9.330;2023-01-10T12:28:23;98963.41;;;7.28;84.00
55604;BME280;41468;48.838;9.330;2023-01-10T12:30:52;98951.44;;;7.29;84.03
55604;BME280;41468;48.838;9.330;2023-01-10T12:33:32;98953.47;;;7.32;82.49
55604;BME280;41468;48.838;9.330;2023-01-10T12:36:16;98943.94;;;7.26;84.09
55604;BME280;41468;48.838;9.330;2023-01-10T12:39:04;98946.72;;;7.38;84.20
55604;BME280;41468;48.838;9.330;2023-01-10T12:41:45;98935.47;;;7.48;82.10
55604;BME280;41468;48.838;9.330;2023-01-10T12:44:43;98938.66;;;7.50;85.12
55604;BME280;41468;48.838;9.330;2023-01-10T12:47:36;98928.69;;;7.55;81.65
55604;BME280;41468;48.838;9.330;2023-01-10T12:55:23;98921.59;;;7.62;79.12
55604;BME280;41468;48.838;9.330;2023-01-10T12:57:57;98919.34;;;7.64;77.42
55604;BME280;41468;48.838;9.330;2023-01-10T13:00:32;98915.06;;;7.63;77.91
55604;BME280;41468;48.838;9.330;2023-01-10T13:03:19;98919.94;;;7.70;77.27
55604;BME280;41468;48.838;9.330;2023-01-10T13:05:47;98916.06;;;7.71;77.70
55604;BME280;41468;48.838;9.330;2023-01-10T13:08:22;98913.84;;;7.73;74.15
55604;BME280;41468;48.838;9.330;2023-01-10T13:10:52;98915.84;;;7.64;72.93
55604;BME280;41468;48.838;9.330;2023-01-10T13:13:35;98915.69;;;7.60;74.93
55604;BME280;41468;48.838;9.330;2023-01-10T13:21:40;98908.47;;;7.64;75.27
55604;BME280;41468;48.838;9.330;2023-01-10T13:26:52;98912.66;;;7.62;71.33
55604;BME280;41468;48.838;9.330;2023-01-10T13:29:24;98904.91;;;7.51;70.08
55604;BME280;41468;48.838;9.330;2023-01-10T13:31:51;98910.13;;;7.36;67.72
55604;BME280;41468;48.838;9.330;2023-01-10T13:34:32;98909.63;;;7.42;70.30
55604;BME280;41468;48.838;9.330;2023-01-10T13:37:03;98913.22;;;7.34;70.53
55604;BME280;41468;48.838;9.330;2023-01-10T13:39:50;98919.91;;;7.37;69.25
55604;BME280;41468;48.838;9.330;2023-01-10T13:42:36;98926.59;;;7.39;70.08
55604;BME280;41468;48.838;9.330;2023-01-10T13:45:29;98925.19;;;7.33;68.73
55604;BME280;41468;48.838;9.330;2023-01-10T13:48:01;98928.72;;;7.34;67.93
55604;BME280;41468;48.838;9.330;2023-01-10T14:00:47;98928.19;;;7.40;65.78
55604;BME280;41468;48.838;9.330;2023-01-10T14:03:45;98924.66;;;7.40;68.16
55604;BME280;41468;48.838;9.330;2023-01-10T14:09:01;98933.41;;;7.45;65.09
55604;BME280;41468;48.838;9.330;2023-01-10T14:11:32;98930.97;;;7.52;66.27
55604;BME280;41468;48.838;9.330;2023-01-10T14:14:34;98929.44;;;7.64;66.43
55604;BME280;41468;48.838;9.330;2023-01-10T14:19:42;98943.81;;;7.64;65.39
55604;BME280;41468;48.838;9.330;2023-01-10T14:24:52;98928.44;;;7.68;65.41
55604;BME280;41468;48.838;9.330;2023-01-10T14:27:20;98936.66;;;7.60;64.90
55604;BME280;41468;48.838;9.330;2023-01-10T14:29:58;98930.31;;;7.56;65.11
55604;BME280;41468;48.838;9.330;2023-01-10T14:32:33;98941.28;;;7.59;65.69
55604;BME280;41468;48.838;9.330;2023-01-10T14:35:03;98942.44;;;7.58;65.45
55604;BME280;41468;48.838;9.330;2023-01-10T14:37:35;98937.00;;;7.58;66.49
55604;BME280;41468;48.838;9.330;2023-01-10T14:40:05;98928.75;;;7.67;66.01
55604;BME280;41468;48.838;9.330;2023-01-10T14:42:36;98935.97;;;7.63;65.68
55604;BME280;41468;48.838;9.330;2023-01-10T14:45:22;98929.81;;;7.74;66.68
55604;BME280;41468;48.838;9.330;2023-01-10T14:47:51;98928.84;;;7.58;64.88
55604;BME280;41468;48.838;9.330;2023-01-10T14:50:29;98926.78;;;7.55;64.50
55604;BME280;41468;48.838;9.330;2023-01-10T14:52:58;98922.06;;;7.43;64.63
55604;BME280;41468;48.838;9.330;2023-01-10T14:55:25;98919.69;;;7.42;64.57
55604;BME280;41468;48.838;9.330;2023-01-10T14:57:57;98919.81;;;7.45;64.35